Time;durP1;ratioP1;P1;durP2;ratioP2;P2;SDS_P1;SDS_P2;PMS_P1;PMS_P2;Temp;Humidity;BMP_temperature;BMP_pressure;BME280_temperature;BME280_humidity;BME280_pressure;Samples;Min_cycle;Max_cycle;Signal;HPM_P1;HPM_P2
2023/07/25 00:00:44;;;;;;;5.35;2.90;;;17.00;99.90;;;;;;5069357;28;20021;-79
2023/07/25 00:03:10;;;;;;;2.85;2.33;;;17.10;99.90;;;;;;5070639;28;20620;-80
2023/07/25 00:05:36;;;;;;;3.42;2.70;;;17.00;99.90;;;;;;5074374;28;20111;-80
2023/07/25 00:08:20;;;;;;;2.97;2.72;;;16.90;99.90;;;;;;5060862;28;20052;-79
2023/07/25 00:10:46;;;;;;;3.17;2.58;;;16.90;99.90;;;;;;5069286;28;20037;-80
2023/07/25 00:13:12;;;;;;;4.68;2.88;;;16.80;99.90;;;;;;5062404;28;20035;-78
2023/07/25 00:15:37;;;;;;;4.30;2.92;;;16.80;99.90;;;;;;5063764;28;20089;-79
2023/07/25 00:18:04;;;;;;;3.40;2.63;;;16.80;99.90;;;;;;5065175;28;20032;-80
2023/07/25 00:20:30;;;;;;;3.50;2.63;;;16.80;99.90;;;;;;5058320;28;20400;-79
2023/07/25 00:22:56;;;;;;;3.70;2.55;;;16.80;99.90;;;;;;5069856;28;20032;-80
2023/07/25 00:25:22;;;;;;;3.40;2.75;;;16.70;99.90;;;;;;5068274;28;20033;-78
2023/07/25 00:27:48;;;;;;;3.60;2.45;;;16.70;99.90;;;;;;5064103;28;20397;-79
2023/07/25 00:30:14;;;;;;;3.58;2.45;;;16.60;99.90;;;;;;5059178;28;20028;-79
2023/07/25 00:32:40;;;;;;;4.95;2.72;;;16.60;99.90;;;;;;5060377;28;20033;-79
2023/07/25 00:35:06;;;;;;;4.43;2.90;;;16.60;99.90;;;;;;5064460;28;20505;-80
2023/07/25 00:37:32;;;;;;;4.30;2.95;;;16.50;99.90;;;;;;5060292;28;20056;-81
2023/07/25 00:39:58;;;;;;;4.63;2.80;;;16.50;99.90;;;;;;5068841;28;20033;-79
2023/07/25 00:42:24;;;;;;;3.08;2.78;;;16.40;99.90;;;;;;5069460;28;20788;-81
2023/07/25 00:44:50;;;;;;;3.70;2.85;;;16.40;99.90;;;;;;5071343;28;20028;-79
2023/07/25 00:47:18;;;;;;;3.15;2.65;;;16.30;99.90;;;;;;5071901;28;20040;-79
2023/07/25 00:49:45;;;;;;;3.75;3.03;;;16.30;99.90;;;;;;5062562;28;20128;-80
2023/07/25 00:52:10;;;;;;;4.53;2.95;;;16.30;99.90;;;;;;5066748;28;20069;-79
2023/07/25 00:54:44;;;;;;;3.95;2.72;;;16.20;99.90;;;;;;5059678;28;20075;-80
2023/07/25 00:57:10;;;;;;;3.25;2.95;;;16.20;99.90;;;;;;5062011;28;20055;-80
2023/07/25 00:59:35;;;;;;;4.57;3.05;;;16.20;99.90;;;;;;5053867;28;20378;-78
2023/07/25 01:02:02;;;;;;;3.65;3.30;;;16.20;99.90;;;;;;5068696;28;20024;-79
2023/07/25 01:04:28;;;;;;;6.43;3.10;;;16.20;99.90;;;;;;5065931;28;20162;-79
2023/07/25 01:06:54;;;;;;;5.60;3.35;;;16.10;99.90;;;;;;5068076;28;20045;-78
2023/07/25 01:09:40;;;;;;;4.28;2.75;;;16.10;99.90;;;;;;5062533;28;20044;-81
2023/07/25 01:12:07;;;;;;;4.60;3.28;;;16.00;99.90;;;;;;5068728;28;20032;-80
2023/07/25 01:14:34;;;;;;;5.50;2.90;;;16.00;99.90;;;;;;5066442;28;20044;-81
2023/07/25 01:17:21;;;;;;;3.40;3.03;;;15.90;99.90;;;;;;5067410;28;20033;-80
2023/07/25 01:19:48;;;;;;;4.00;2.75;;;15.90;99.90;;;;;;5074766;28;20031;-80
2023/07/25 01:22:14;;;;;;;3.80;2.95;;;15.90;99.90;;;;;;5072963;28;20496;-79
2023/07/25 01:24:47;;;;;;;5.57;3.45;;;15.90;99.90;;;;;;5072842;28;20044;-79
2023/07/25 01:27:14;;;;;;;4.93;3.45;;;15.90;99.90;;;;;;5072731;28;20175;-80
2023/07/25 01:29:41;;;;;;;5.07;3.10;;;15.80;99.90;;;;;;5065633;28;20127;-79
2023/07/25 01:32:07;;;;;;;4.63;3.05;;;15.80;99.90;;;;;;5070282;28;20385;-79
2023/07/25 01:34:33;;;;;;;4.60;3.03;;;15.80;99.90;;;;;;5076791;28;20048;-80
2023/07/25 01:36:59;;;;;;;5.35;3.10;;;15.80;99.90;;;;;;5081598;28;20033;-80
2023/07/25 01:39:24;;;;;;;4.60;2.92;;;15.70;99.90;;;;;;5063015;28;20044;-80
2023/07/25 01:41:50;;;;;;;3.50;2.95;;;15.70;99.90;;;;;;5070817;28;20029;-83
2023/07/25 01:44:16;;;;;;;4.22;3.25;;;15.70;99.90;;;;;;5064288;28;20040;-81
2023/07/25 01:46:42;;;;;;;4.28;3.17;;;15.70;99.90;;;;;;5067861;28;20029;-80
2023/07/25 01:49:11;;;;;;;3.75;3.15;;;15.70;99.90;;;;;;5066905;28;20056;-79
2023/07/25 01:51:38;;;;;;;4.57;3.30;;;15.70;99.90;;;;;;5076884;28;20151;-79
2023/07/25 01:54:05;;;;;;;3.55;2.83;;;15.70;99.90;;;;;;5075528;28;20055;-81
2023/07/25 01:56:30;;;;;;;2.90;2.70;;;15.70;99.90;;;;;;5076164;28;20037;-81
2023/07/25 01:58:56;;;;;;;4.65;3.53;;;15.70;99.90;;;;;;5066507;28;20162;-82
2023/07/25 02:01:22;;;;;;;3.78;3.33;;;15.70;99.90;;;;;;5066042;28;20473;-81
2023/07/25 02:03:48;;;;;;;4.15;3.25;;;15.70;99.90;;;;;;5070556;28;20038;-81
2023/07/25 02:06:14;;;;;;;6.47;3.53;;;15.70;99.90;;;;;;5071003;28;20037;-81
2023/07/25 02:08:40;;;;;;;3.40;3.10;;;15.60;99.90;;;;;;5071825;28;20059;-80
2023/07/25 02:11:06;;;;;;;4.07;3.38;;;15.60;99.90;;;;;;5068603;28;20548;-81
2023/07/25 02:13:32;;;;;;;5.55;3.55;;;15.50;99.90;;;;;;5071086;28;20549;-80
2023/07/25 02:15:58;;;;;;;4.80;3.90;;;15.40;99.90;;;;;;5077791;28;20044;-80
2023/07/25 02:18:23;;;;;;;5.25;3.33;;;15.40;99.90;;;;;;5064688;28;20534;-81
2023/07/25 02:20:49;;;;;;;4.55;3.40;;;15.40;99.90;;;;;;5067527;28;20032;-80
2023/07/25 02:23:15;;;;;;;4.28;3.67;;;15.30;99.90;;;;;;5073433;28;20075;-80
2023/07/25 02:25:42;;;;;;;3.67;3.25;;;15.30;99.90;;;;;;5074819;28;20047;-82
2023/07/25 02:28:07;;;;;;;5.55;3.13;;;15.30;99.90;;;;;;5072356;28;20028;-80
2023/07/25 02:30:33;;;;;;;5.50;3.80;;;15.30;99.90;;;;;;5080838;28;20028;-81
2023/07/25 02:33:17;;;;;;;4.53;3.58;;;15.30;99.90;;;;;;5070826;28;20392;-81
2023/07/25 02:35:43;;;;;;;4.03;3.40;;;15.40;99.90;;;;;;5081905;28;20024;-80
2023/07/25 02:38:09;;;;;;;4.20;3.63;;;15.40;99.90;;;;;;5063165;28;20514;-81
2023/07/25 02:40:35;;;;;;;4.03;3.50;;;15.40;99.90;;;;;;5065619;28;20473;-80
2023/07/25 02:43:03;;;;;;;4.53;3.25;;;15.50;99.90;;;;;;5078563;28;20035;-80
2023/07/25 02:45:29;;;;;;;5.45;3.40;;;15.40;99.90;;;;;;5078265;28;20036;-80
2023/07/25 02:47:55;;;;;;;4.28;3.80;;;15.40;99.90;;;;;;5078922;28;20021;-79
2023/07/25 02:50:21;;;;;;;4.60;3.17;;;15.40;99.90;;;;;;5075686;28;20055;-79
2023/07/25 02:52:46;;;;;;;3.83;3.45;;;15.40;99.90;;;;;;5067680;28;20040;-82
2023/07/25 02:55:12;;;;;;;6.55;3.47;;;15.30;99.90;;;;;;5066699;28;20078;-81
2023/07/25 02:57:38;;;;;;;4.47;3.58;;;15.30;99.90;;;;;;5081144;28;20483;-82
2023/07/25 03:00:06;;;;;;;7.70;3.65;;;15.30;99.90;;;;;;5078855;28;20032;-82
2023/07/25 03:02:32;;;;;;;6.15;3.42;;;15.30;99.90;;;;;;5069675;28;20059;-79
2023/07/25 03:04:58;;;;;;;5.25;3.42;;;15.30;99.90;;;;;;5086121;28;20025;-80
2023/07/25 03:07:23;;;;;;;5.47;3.72;;;15.30;99.90;;;;;;5084752;28;20043;-81
2023/07/25 03:09:49;;;;;;;4.20;3.08;;;15.20;99.90;;;;;;5092395;28;20032;-80
2023/07/25 03:12:15;;;;;;;4.75;3.10;;;15.20;99.90;;;;;;5081473;28;20032;-80
2023/07/25 03:14:40;;;;;;;3.60;3.25;;;15.20;99.90;;;;;;5084277;28;20041;-80
2023/07/25 03:17:06;;;;;;;4.43;3.35;;;15.30;99.90;;;;;;5077107;28;20028;-80
2023/07/25 03:19:32;;;;;;;3.92;3.25;;;15.20;99.90;;;;;;5063183;28;20394;-80
2023/07/25 03:21:58;;;;;;;6.63;4.00;;;15.30;99.90;;;;;;5072685;28;20074;-82
2023/07/25 03:24:24;;;;;;;4.88;3.28;;;15.30;99.90;;;;;;5064783;28;20067;-80
2023/07/25 03:26:50;;;;;;;4.80;3.53;;;15.20;99.90;;;;;;5070559;28;20454;-82
2023/07/25 03:29:15;;;;;;;4.70;3.40;;;15.20;99.90;;;;;;5085282;28;20056;-79
2023/07/25 03:31:41;;;;;;;5.32;3.47;;;15.20;99.90;;;;;;5084914;28;20060;-80
2023/07/25 03:34:07;;;;;;;3.63;3.20;;;15.20;99.90;;;;;;5091598;28;20047;-80
2023/07/25 03:36:33;;;;;;;4.22;3.28;;;15.20;99.90;;;;;;5070013;28;20408;-81
2023/07/25 03:38:59;;;;;;;4.22;3.30;;;15.10;99.90;;;;;;5086796;28;20035;-79
2023/07/25 03:41:24;;;;;;;4.43;3.30;;;15.10;99.90;;;;;;5085961;28;20024;-80
2023/07/25 03:43:50;;;;;;;4.78;3.20;;;15.10;99.90;;;;;;5081206;28;20052;-81
2023/07/25 03:46:16;;;;;;;4.57;3.50;;;15.10;99.90;;;;;;5076080;28;20055;-81
2023/07/25 03:48:41;;;;;;;4.90;3.28;;;15.10;99.90;;;;;;5081623;28;20040;-78
2023/07/25 03:51:07;;;;;;;3.60;2.88;;;15.10;99.90;;;;;;5089428;28;20484;-79
2023/07/25 03:53:33;;;;;;;3.85;3.45;;;15.10;99.90;;;;;;5086672;28;20481;-79
2023/07/25 03:55:59;;;;;;;5.95;3.35;;;15.10;99.90;;;;;;5079222;28;20036;-79
2023/07/25 03:58:25;;;;;;;3.47;3.03;;;15.10;99.90;;;;;;5075478;28;20046;-80
2023/07/25 04:00:51;;;;;;;5.32;3.92;;;15.10;99.90;;;;;;5086730;28;20032;-81
2023/07/25 04:03:16;;;;;;;4.93;3.90;;;15.10;99.90;;;;;;5087564;28;20020;-80
2023/07/25 04:05:42;;;;;;;4.70;3.72;;;15.00;99.90;;;;;;5068614;28;20142;-81
2023/07/25 04:08:08;;;;;;;4.57;3.53;;;15.10;99.90;;;;;;5090676;28;20032;-80
2023/07/25 04:10:34;;;;;;;3.53;2.92;;;15.10;99.90;;;;;;5081107;28;20120;-80
2023/07/25 04:13:00;;;;;;;6.47;3.80;;;15.20;99.90;;;;;;5074966;28;20393;-79
2023/07/25 04:15:26;;;;;;;4.68;3.05;;;15.20;99.90;;;;;;5069445;28;20040;-79
2023/07/25 04:17:51;;;;;;;4.15;3.28;;;15.30;99.90;;;;;;5073520;28;20025;-81
2023/07/25 04:20:17;;;;;;;3.55;3.20;;;15.30;99.90;;;;;;5081042;28;20073;-79
2023/07/25 04:22:43;;;;;;;3.05;2.75;;;15.40;99.90;;;;;;5085966;28;20593;-80
2023/07/25 04:25:09;;;;;;;3.47;2.70;;;15.40;99.90;;;;;;5077696;28;20051;-80
2023/07/25 04:27:34;;;;;;;4.38;3.10;;;15.40;99.90;;;;;;5073494;28;20165;-80
2023/07/25 04:30:00;;;;;;;4.35;2.60;;;15.50;99.90;;;;;;5063944;28;20475;-83
2023/07/25 04:32:26;;;;;;;3.05;2.70;;;15.50;99.90;;;;;;5072512;28;20040;-80
2023/07/25 04:34:52;;;;;;;2.75;2.55;;;15.50;99.90;;;;;;5071902;28;20510;-79
2023/07/25 04:37:17;;;;;;;3.13;2.83;;;15.50;99.90;;;;;;5081873;28;20032;-82
2023/07/25 04:39:43;;;;;;;3.10;2.65;;;15.60;99.90;;;;;;5085823;28;20029;-81
2023/07/25 04:42:27;;;;;;;5.13;2.80;;;15.60;99.90;;;;;;5086976;28;20075;-81
2023/07/25 04:44:53;;;;;;;3.60;2.60;;;15.60;99.90;;;;;;5084090;28;20028;-81
2023/07/25 04:47:19;;;;;;;3.28;2.58;;;15.70;99.90;;;;;;5068586;28;20053;-80
2023/07/25 04:49:52;;;;;;;3.28;2.67;;;15.70;99.90;;;;;;5076876;28;20029;-81
2023/07/25 04:52:18;;;;;;;3.05;2.65;;;15.80;99.90;;;;;;5058494;28;20056;-80
2023/07/25 04:54:44;;;;;;;3.22;2.75;;;15.80;99.90;;;;;;5067898;28;20128;-80
2023/07/25 04:57:10;;;;;;;3.45;2.45;;;15.90;99.90;;;;;;5076675;28;20096;-81
2023/07/25 04:59:36;;;;;;;3.47;2.60;;;15.90;99.90;;;;;;5076652;28;20049;-80
2023/07/25 05:02:01;;;;;;;4.80;2.42;;;16.00;99.90;;;;;;5076627;28;20035;-80
2023/07/25 05:04:27;;;;;;;3.22;2.42;;;16.00;99.90;;;;;;5078866;28;20044;-80
2023/07/25 05:06:54;;;;;;;2.67;2.35;;;16.00;99.90;;;;;;5069792;28;20037;-81
2023/07/25 05:09:20;;;;;;;5.85;2.13;;;16.00;99.90;;;;;;5066899;28;20033;-81
2023/07/25 05:11:51;;;;;;;3.20;2.50;;;16.10;99.90;;;;;;5081235;28;20082;-80
2023/07/25 05:14:17;;;;;;;2.60;2.30;;;16.00;99.90;;;;;;5079946;28;20029;-81
2023/07/25 05:16:43;;;;;;;4.07;2.25;;;16.10;99.90;;;;;;5075949;28;20040;-80
2023/07/25 05:19:09;;;;;;;6.22;2.78;;;16.10;99.90;;;;;;5075633;28;20024;-80
2023/07/25 05:21:35;;;;;;;3.03;2.40;;;16.10;99.90;;;;;;5065911;28;20025;-81
2023/07/25 05:24:01;;;;;;;3.80;3.10;;;16.10;99.90;;;;;;5079347;28;20029;-81
2023/07/25 05:26:27;;;;;;;2.85;2.53;;;16.10;99.90;;;;;;5072867;28;20033;-80
2023/07/25 05:29:11;;;;;;;2.40;2.20;;;16.20;99.90;;;;;;5077824;28;20051;-80
2023/07/25 05:31:36;;;;;;;5.68;2.65;;;16.10;99.90;;;;;;5068785;28;20036;-81
2023/07/25 05:34:02;;;;;;;7.43;3.22;;;16.10;99.90;;;;;;5081760;28;20024;-81
2023/07/25 05:36:28;;;;;;;2.72;2.30;;;16.20;99.90;;;;;;5077462;28;20033;-79
2023/07/25 05:38:54;;;;;;;2.53;2.20;;;16.20;99.90;;;;;;5087994;28;20025;-79
2023/07/25 05:41:20;;;;;;;2.47;2.28;;;16.30;99.90;;;;;;5074781;28;20029;-80
2023/07/25 05:43:45;;;;;;;3.42;2.20;;;16.30;99.90;;;;;;5072738;28;20067;-79
2023/07/25 05:46:13;;;;;;;3.40;2.60;;;16.40;99.90;;;;;;5084847;28;20441;-80
2023/07/25 05:48:39;;;;;;;2.50;2.30;;;16.40;99.90;;;;;;5071920;28;20048;-80
2023/07/25 05:51:05;;;;;;;3.85;2.38;;;16.50;99.90;;;;;;5083060;28;20036;-78
2023/07/25 05:53:31;;;;;;;2.55;2.35;;;16.60;99.90;;;;;;5089740;28;20074;-80
2023/07/25 05:55:57;;;;;;;2.92;2.42;;;16.80;99.90;;;;;;5069279;28;20035;-80
2023/07/25 05:58:23;;;;;;;2.60;2.13;;;16.90;99.90;;;;;;5065620;28;20029;-81
2023/07/25 06:00:49;;;;;;;3.88;2.53;;;17.00;99.90;;;;;;5074860;28;20043;-81
2023/07/25 06:03:16;;;;;;;4.13;2.45;;;17.10;99.90;;;;;;5064122;28;20070;-81
2023/07/25 06:05:41;;;;;;;2.17;1.98;;;17.20;99.90;;;;;;5069554;28;20090;-80
2023/07/25 06:08:08;;;;;;;2.65;2.17;;;17.30;99.90;;;;;;5067575;28;20055;-80
2023/07/25 06:10:35;;;;;;;2.72;2.17;;;17.40;99.90;;;;;;5071839;28;20097;-81
2023/07/25 06:13:04;;;;;;;4.07;2.30;;;17.50;99.90;;;;;;5071001;28;20119;-81
2023/07/25 06:15:30;;;;;;;4.22;2.17;;;17.60;99.90;;;;;;5066746;28;20040;-80
2023/07/25 06:17:56;;;;;;;2.75;2.55;;;17.60;99.90;;;;;;5071765;28;20041;-79
2023/07/25 06:20:22;;;;;;;10.10;3.20;;;17.40;99.90;;;;;;5067101;28;20053;-81
2023/07/25 06:22:48;;;;;;;2.83;2.30;;;17.50;99.90;;;;;;5067913;28;20033;-81
2023/07/25 06:25:15;;;;;;;3.10;2.53;;;17.60;99.90;;;;;;5066164;28;20055;-80
2023/07/25 06:27:41;;;;;;;3.97;2.80;;;17.80;99.90;;;;;;5087168;28;20351;-81
2023/07/25 06:30:07;;;;;;;2.58;2.30;;;17.90;99.90;;;;;;5089167;28;20024;-80
2023/07/25 06:32:34;;;;;;;3.30;2.33;;;17.90;99.90;;;;;;5084039;28;20259;-80
2023/07/25 06:35:00;;;;;;;4.45;2.20;;;18.20;99.90;;;;;;5082215;28;20044;-80
2023/07/25 06:37:26;;;;;;;4.45;2.50;;;18.60;99.90;;;;;;5077930;28;20032;-81
2023/07/25 06:39:52;;;;;;;3.92;2.17;;;18.80;99.90;;;;;;5081942;28;20032;-80
2023/07/25 06:42:17;;;;;;;3.70;2.78;;;18.80;99.90;;;;;;5069373;28;20065;-79
2023/07/25 06:44:46;;;;;;;3.28;2.30;;;18.40;99.90;;;;;;5066639;28;20485;-80
2023/07/25 06:47:12;;;;;;;2.83;2.53;;;18.60;99.90;;;;;;5068293;28;20040;-80
2023/07/25 06:49:38;;;;;;;4.28;2.20;;;18.80;99.90;;;;;;5069537;28;20040;-80
2023/07/25 06:52:04;;;;;;;5.18;2.10;;;18.80;99.90;;;;;;5073010;28;20024;-79
2023/07/25 06:54:29;;;;;;;3.08;2.40;;;18.90;99.90;;;;;;5075840;28;20052;-80
2023/07/25 06:56:55;;;;;;;2.63;2.33;;;18.90;99.90;;;;;;5062066;28;20490;-81
2023/07/25 06:59:21;;;;;;;2.35;2.15;;;18.70;99.90;;;;;;5056531;28;20032;-81
2023/07/25 07:01:46;;;;;;;3.70;1.98;;;18.60;99.90;;;;;;5065427;28;20125;-80
2023/07/25 07:04:12;;;;;;;1.95;1.60;;;18.70;99.90;;;;;;5067704;28;20055;-81
2023/07/25 07:06:38;;;;;;;11.70;2.45;;;18.60;99.90;;;;;;5066844;28;20025;-81
2023/07/25 07:09:04;;;;;;;2.90;2.00;;;18.60;99.90;;;;;;5059313;28;20036;-80
2023/07/25 07:11:29;;;;;;;1.70;1.60;;;18.70;99.90;;;;;;5054872;28;20044;-80
2023/07/25 07:13:55;;;;;;;2.22;1.73;;;18.50;99.90;;;;;;5058673;28;20036;-79
2023/07/25 07:16:20;;;;;;;2.55;1.80;;;18.60;99.90;;;;;;5064554;28;20041;-79
2023/07/25 07:18:46;;;;;;;3.70;1.73;;;18.60;99.90;;;;;;5062020;28;20033;-81
2023/07/25 07:21:12;;;;;;;1.77;1.67;;;18.60;99.90;;;;;;5066478;28;20051;-80
2023/07/25 07:23:38;;;;;;;3.88;2.90;;;18.60;99.90;;;;;;5064276;28;20052;-79
2023/07/25 07:26:03;;;;;;;5.25;4.75;;;18.60;99.90;;;;;;5058989;28;20103;-80
2023/07/25 07:28:29;;;;;;;3.35;2.67;;;18.60;99.90;;;;;;5066244;28;20599;-79
2023/07/25 07:30:55;;;;;;;2.80;1.65;;;18.50;99.90;;;;;;5062873;28;20024;-81
2023/07/25 07:33:21;;;;;;;3.20;1.42;;;18.50;99.90;;;;;;5069397;28;20559;-82
2023/07/25 07:35:47;;;;;;;3.35;1.90;;;18.60;99.90;;;;;;5041323;28;20062;-82
2023/07/25 07:38:12;;;;;;;3.38;1.80;;;18.60;99.90;;;;;;5047572;28;20033;-80
2023/07/25 07:40:38;;;;;;;2.47;2.22;;;18.60;99.90;;;;;;5065420;28;20070;-82
2023/07/25 07:43:04;;;;;;;2.95;1.75;;;18.60;99.90;;;;;;5066384;28;20376;-83
2023/07/25 07:45:33;;;;;;;1.40;1.30;;;18.60;99.90;;;;;;5077333;28;20044;-82
2023/07/25 07:48:00;;;;;;;1.70;1.60;;;18.60;99.90;;;;;;5079145;28;20513;-81
2023/07/25 07:50:28;;;;;;;3.72;1.60;;;18.60;99.90;;;;;;5075601;28;20036;-83
2023/07/25 07:52:54;;;;;;;1.95;1.60;;;18.60;99.90;;;;;;5088141;28;20028;-80
2023/07/25 07:55:20;;;;;;;2.60;1.80;;;18.60;99.90;;;;;;5077255;28;20092;-85
2023/07/25 07:57:46;;;;;;;1.88;1.50;;;18.60;99.90;;;;;;5076997;28;20097;-81
2023/07/25 08:00:15;;;;;;;4.93;1.52;;;18.60;99.90;;;;;;5080763;28;20048;-83
2023/07/25 08:02:42;;;;;;;1.83;1.30;;;18.50;99.90;;;;;;5048575;28;20041;-83
2023/07/25 08:05:08;;;;;;;1.77;1.40;;;18.40;99.90;;;;;;5067453;28;20073;-84
2023/07/25 08:07:34;;;;;;;2.10;1.52;;;18.40;99.90;;;;;;5067354;28;20479;-82
2023/07/25 08:10:00;;;;;;;1.58;1.42;;;18.40;99.90;;;;;;5062597;28;20083;-83
2023/07/25 08:12:26;;;;;;;1.70;1.40;;;18.40;99.90;;;;;;5068561;28;20635;-83
2023/07/25 08:14:52;;;;;;;1.60;1.50;;;18.40;99.90;;;;;;5067369;28;20037;-81
2023/07/25 08:17:18;;;;;;;1.98;1.30;;;18.30;99.90;;;;;;5061190;28;20036;-81
2023/07/25 08:19:44;;;;;;;1.65;1.35;;;18.30;99.90;;;;;;5057376;28;20025;-81
2023/07/25 08:22:10;;;;;;;2.38;1.27;;;18.30;99.90;;;;;;5063710;28;20485;-79
2023/07/25 08:24:37;;;;;;;3.03;1.48;;;18.30;99.90;;;;;;5063328;28;20043;-82
2023/07/25 08:27:03;;;;;;;1.10;1.00;;;18.30;99.90;;;;;;5059130;28;20040;-81
2023/07/25 08:29:29;;;;;;;1.75;1.63;;;18.30;99.90;;;;;;5059141;28;20113;-81
2023/07/25 08:31:54;;;;;;;1.42;1.33;;;18.30;99.90;;;;;;5067338;28;20036;-81
2023/07/25 08:34:20;;;;;;;1.38;1.27;;;18.30;99.90;;;;;;5068864;28;20037;-83
2023/07/25 08:36:49;;;;;;;1.60;1.35;;;18.30;99.90;;;;;;5058394;28;20475;-81
2023/07/25 08:39:15;;;;;;;2.65;1.55;;;18.30;99.90;;;;;;5061627;28;20028;-82
2023/07/25 08:41:50;;;;;;;2.38;1.30;;;18.30;99.90;;;;;;5069003;28;20044;-83
2023/07/25 08:44:19;;;;;;;4.22;1.40;;;18.30;99.90;;;;;;5052060;28;20057;-81
2023/07/25 08:46:45;;;;;;;1.38;1.20;;;18.30;99.90;;;;;;5058000;28;20033;-80
2023/07/25 08:49:14;;;;;;;1.88;1.60;;;18.40;99.90;;;;;;5061646;28;20029;-84
2023/07/25 08:51:43;;;;;;;1.50;1.40;;;18.30;99.90;;;;;;5066563;28;20051;-84
2023/07/25 08:54:27;;;;;;;1.42;1.10;;;18.30;99.90;;;;;;5062995;28;20040;-83
2023/07/25 08:56:53;;;;;;;1.95;1.38;;;18.30;99.90;;;;;;5068543;28;20545;-82
2023/07/25 08:59:20;;;;;;;1.20;1.10;;;18.40;99.90;;;;;;5063807;28;20033;-82
2023/07/25 09:01:46;;;;;;;1.60;1.50;;;18.40;99.90;;;;;;5065914;28;20116;-82
2023/07/25 09:04:31;;;;;;;2.28;1.30;;;18.50;99.90;;;;;;5067966;28;20056;-81
2023/07/25 09:06:56;;;;;;;0.90;0.90;;;18.60;99.90;;;;;;5058117;28;20099;-81
2023/07/25 09:09:23;;;;;;;1.05;0.95;;;18.80;99.90;;;;;;5059137;28;20033;-81
2023/07/25 09:11:49;;;;;;;1.50;1.15;;;18.90;99.90;;;;;;5057112;28;20143;-81
2023/07/25 09:14:15;;;;;;;1.35;1.10;;;19.10;99.90;;;;;;5062130;28;20033;-83
2023/07/25 09:16:41;;;;;;;2.03;1.15;;;19.20;99.90;;;;;;5065804;28;20043;-83
2023/07/25 09:19:07;;;;;;;1.80;1.40;;;19.20;99.90;;;;;;5060992;28;20025;-80
2023/07/25 09:21:44;;;;;;;0.93;0.90;;;19.30;99.90;;;;;;5067056;28;20033;-81
2023/07/25 09:24:11;;;;;;;2.85;1.30;;;19.10;99.90;;;;;;5068112;28;20095;-83
2023/07/25 09:26:39;;;;;;;1.30;1.20;;;19.10;99.90;;;;;;5040204;28;20036;-81
2023/07/25 09:29:05;;;;;;;1.23;1.13;;;18.90;99.90;;;;;;5063563;28;20051;-80
2023/07/25 09:31:41;;;;;;;2.53;1.17;;;18.80;99.90;;;;;;5066532;28;20045;-82
2023/07/25 09:34:06;;;;;;;1.60;1.30;;;18.70;99.90;;;;;;5064397;28;20028;-81
2023/07/25 09:36:32;;;;;;;2.30;1.40;;;18.70;99.90;;;;;;5055237;28;20113;-81
2023/07/25 09:38:59;;;;;;;2.38;1.65;;;18.50;99.90;;;;;;5059197;28;20451;-81
2023/07/25 09:41:25;;;;;;;1.33;1.23;;;18.50;99.90;;;;;;5065367;28;20037;-83
2023/07/25 09:43:52;;;;;;;2.40;1.58;;;18.30;99.90;;;;;;5066378;28;20025;-80
2023/07/25 09:46:18;;;;;;;1.55;1.45;;;18.00;99.90;;;;;;5054025;28;20111;-83
2023/07/25 09:48:46;;;;;;;1.23;1.13;;;17.80;99.90;;;;;;5054439;28;20028;-81
2023/07/25 09:51:13;;;;;;;1.80;1.70;;;17.60;99.90;;;;;;5058057;28;20102;-85
2023/07/25 09:53:42;;;;;;;2.42;1.70;;;17.50;99.90;;;;;;5054145;28;20037;-84
2023/07/25 09:56:08;;;;;;;2.75;1.55;;;17.40;99.90;;;;;;5058334;28;20508;-86
2023/07/25 09:58:35;;;;;;;1.85;1.65;;;17.30;99.90;;;;;;5050387;28;20487;-84
2023/07/25 10:01:02;;;;;;;4.03;1.70;;;17.20;99.90;;;;;;5057636;28;20039;-84
2023/07/25 10:03:29;;;;;;;1.90;1.35;;;17.20;99.90;;;;;;5039635;28;20083;-83
2023/07/25 10:05:56;;;;;;;2.70;1.88;;;17.20;99.90;;;;;;5044286;28;20029;-83
2023/07/25 10:08:24;;;;;;;2.00;1.65;;;17.20;99.90;;;;;;5061640;28;20037;-81
2023/07/25 10:10:51;;;;;;;1.70;1.60;;;17.20;99.90;;;;;;5057061;28;20037;-81
2023/07/25 10:13:17;;;;;;;2.03;1.45;;;17.20;99.90;;;;;;5053189;28;20045;-82
2023/07/25 10:15:43;;;;;;;4.03;1.60;;;17.20;99.90;;;;;;5055890;28;20094;-82
2023/07/25 10:18:26;;;;;;;1.70;1.60;;;17.30;99.90;;;;;;5054012;28;20397;-82
2023/07/25 10:20:53;;;;;;;1.55;1.30;;;17.30;99.90;;;;;;5057045;28;20036;-81
2023/07/25 10:23:28;;;;;;;3.58;1.15;;;17.30;99.90;;;;;;5068282;28;20028;-81
2023/07/25 10:25:54;;;;;;;1.55;1.45;;;17.40;99.90;;;;;;5068831;28;20103;-81
2023/07/25 10:28:22;;;;;;;2.05;1.40;;;17.40;99.90;;;;;;5035661;28;20844;-81
2023/07/25 10:30:48;;;;;;;1.73;1.63;;;17.40;99.90;;;;;;5065914;28;20028;-82
2023/07/25 10:33:16;;;;;;;1.52;1.42;;;17.40;99.90;;;;;;5074536;28;20240;-83
2023/07/25 10:35:53;;;;;;;2.00;1.80;;;17.40;99.90;;;;;;5047347;28;20033;-82
2023/07/25 10:38:42;;;;;;;1.73;1.63;;;17.40;99.90;;;;;;5068777;28;20032;-81
2023/07/25 10:41:11;;;;;;;1.70;1.60;;;17.40;99.90;;;;;;5062557;28;20913;-84
2023/07/25 10:43:48;;;;;;;1.60;1.50;;;17.40;99.90;;;;;;5052654;28;20029;-82
2023/07/25 10:46:16;;;;;;;1.52;1.40;;;17.40;99.90;;;;;;5062988;28;20036;-82
2023/07/25 10:49:15;;;;;;;1.58;1.48;;;17.50;99.90;;;;;;5057865;28;20032;-82
2023/07/25 10:51:52;;;;;;;2.67;1.40;;;17.60;99.90;;;;;;5067794;28;20043;-81
2023/07/25 10:54:21;;;;;;;2.20;1.98;;;17.70;99.90;;;;;;5060303;28;20041;-83
2023/07/25 10:57:13;;;;;;;1.88;1.48;;;17.90;99.90;;;;;;5066107;28;20128;-82
2023/07/25 11:00:00;;;;;;;1.60;1.38;;;18.10;99.90;;;;;;5056507;28;20335;-81
2023/07/25 11:02:30;;;;;;;1.50;1.40;;;18.30;99.90;;;;;;5070057;28;20051;-83
2023/07/25 11:05:14;;;;;;;3.15;1.65;;;18.40;99.90;;;;;;5062997;28;20055;-82
2023/07/25 11:07:49;;;;;;;2.03;1.65;;;18.60;99.90;;;;;;5060396;28;20569;-81
2023/07/25 11:10:24;;;;;;;3.35;1.92;;;18.60;99.90;;;;;;5066510;28;20497;-82
2023/07/25 11:12:57;;;;;;;1.85;1.75;;;18.80;99.90;;;;;;5059986;28;20430;-83
2023/07/25 11:15:24;;;;;;;3.83;1.90;;;18.80;99.90;;;;;;5060179;28;20098;-81
2023/07/25 11:17:49;;;;;;;1.90;1.67;;;18.80;99.90;;;;;;5060764;28;20029;-80
2023/07/25 11:20:21;;;;;;;1.90;1.65;;;18.90;99.90;;;;;;5055015;28;20040;-81
2023/07/25 11:22:49;;;;;;;3.15;1.33;;;18.90;99.90;;;;;;5059474;28;20059;-82
2023/07/25 11:25:15;;;;;;;1.95;1.60;;;19.00;99.90;;;;;;5060799;28;20120;-82
2023/07/25 11:27:42;;;;;;;1.80;1.70;;;19.00;99.90;;;;;;5071261;28;20058;-81
2023/07/25 11:30:19;;;;;;;1.80;1.63;;;19.10;99.90;;;;;;5069358;28;20115;-82
2023/07/25 11:32:51;;;;;;;2.33;1.90;;;19.30;99.90;;;;;;5071629;28;20036;-81
2023/07/25 11:35:17;;;;;;;1.90;1.75;;;19.40;99.90;;;;;;5069551;28;20040;-81
2023/07/25 11:37:50;;;;;;;1.60;1.40;;;19.20;99.90;;;;;;5059216;28;20036;-83
2023/07/25 11:40:18;;;;;;;2.03;1.83;;;19.20;99.90;;;;;;5068657;28;20029;-82
2023/07/25 11:42:46;;;;;;;1.85;1.65;;;19.40;99.90;;;;;;5071581;28;20054;-83
2023/07/25 11:45:14;;;;;;;2.08;1.90;;;19.50;99.90;;;;;;5052992;28;20041;-82
2023/07/25 11:47:42;;;;;;;2.28;2.08;;;19.60;99.90;;;;;;5072309;28;20030;-82
2023/07/25 11:50:10;;;;;;;1.42;1.33;;;19.60;99.90;;;;;;5072070;28;20029;-82
2023/07/25 11:52:41;;;;;;;1.60;1.50;;;19.70;99.90;;;;;;5071631;28;20043;-82
2023/07/25 11:55:10;;;;;;;1.58;1.48;;;19.90;99.90;;;;;;5055563;28;20477;-82
2023/07/25 11:57:37;;;;;;;2.22;1.98;;;19.90;99.90;;;;;;5047625;28;20059;-83
2023/07/25 12:00:06;;;;;;;2.97;1.83;;;19.80;99.90;;;;;;5056985;28;20024;-81
2023/07/25 12:02:39;;;;;;;2.53;1.80;;;20.00;99.90;;;;;;5056098;28;20049;-81
2023/07/25 12:05:05;;;;;;;1.70;1.45;;;20.10;99.90;;;;;;5056660;28;20400;-82
2023/07/25 12:07:51;;;;;;;2.17;1.50;;;20.30;99.90;;;;;;5057644;28;20055;-82
2023/07/25 12:10:27;;;;;;;1.92;1.60;;;20.40;99.90;;;;;;5064348;28;20037;-82
2023/07/25 12:12:57;;;;;;;2.45;1.50;;;20.50;99.90;;;;;;5054184;28;20579;-82
2023/07/25 12:15:51;;;;;;;2.13;1.40;;;20.40;99.90;;;;;;5058032;28;20028;-82
2023/07/25 12:18:35;;;;;;;1.33;1.23;;;20.50;99.90;;;;;;5077025;28;20071;-82
2023/07/25 12:21:03;;;;;;;3.03;1.45;;;20.70;99.90;;;;;;5063309;28;20090;-81
2023/07/25 12:23:33;;;;;;;1.30;1.20;;;20.90;99.90;;;;;;5068326;28;20075;-81
2023/07/25 12:26:02;;;;;;;2.63;1.50;;;20.90;99.90;;;;;;5067866;28;20115;-82
2023/07/25 12:28:41;;;;;;;2.40;1.52;;;20.10;99.90;;;;;;5063395;28;20032;-81
2023/07/25 12:31:07;;;;;;;1.90;1.50;;;19.80;99.90;;;;;;5062840;28;20382;-82
2023/07/25 12:33:33;;;;;;;1.92;1.83;;;19.60;99.90;;;;;;5052103;28;20033;-81
2023/07/25 12:36:00;;;;;;;1.90;1.58;;;19.70;99.90;;;;;;5063963;28;20032;-82
2023/07/25 12:38:26;;;;;;;1.65;1.55;;;19.80;99.90;;;;;;5061753;28;20025;-80
2023/07/25 12:40:52;;;;;;;1.80;1.70;;;19.80;99.90;;;;;;5064606;28;20035;-80
2023/07/25 12:43:19;;;;;;;2.28;1.27;;;19.80;99.90;;;;;;5055890;28;20025;-82
2023/07/25 12:45:45;;;;;;;2.53;1.55;;;19.80;99.90;;;;;;5061223;28;20025;-82
2023/07/25 12:48:11;;;;;;;1.40;1.30;;;19.80;99.90;;;;;;5056557;28;20365;-84
2023/07/25 12:50:39;;;;;;;1.70;1.20;;;19.80;99.90;;;;;;5058169;28;20515;-84